Погода Курвелона неделю

Минас-Жерайс, Бразилия

19 - 25 июня
  • 19июня
    Сегодня
    +15°
    +29°
    Ясно и безоблачно
    ВремяПогодаТемператураВлажностьДавлениеВетер, м/сВероятность осадков
    00:00Ясно и безоблачно+17°C65 %710 мм1.9 м/с5 %
    03:00Ясно и безоблачно+15°C75 %710 мм1.8 м/с5 %
    06:00Ясно и безоблачно+15°C77 %711 мм1.9 м/с5 %
    09:00Ясно и безоблачно+21°C50 %714 мм2.0 м/с5 %
    12:00Ясно и безоблачно+27°C32 %713 мм1.9 м/с5 %
    15:00Ясно и безоблачно+28°C27 %711 мм1.4 м/с5 %
    18:00Ясно и безоблачно+23°C43 %711 мм2.1 м/с5 %
    21:00Ясно и безоблачно+22°C53 %712 мм2.0 м/с5 %
  • 20июня
    Четверг
    +15°
    +29°
    Ясно и безоблачно
    ВремяПогодаТемператураВлажностьДавлениеВетер, м/сВероятность осадков
    00:00Ясно и безоблачно+19°C67 %711 мм1.9 м/с5 %
    03:00Ясно и безоблачно+16°C76 %710 мм1.8 м/с5 %
    06:00Ясно и безоблачно+15°C80 %711 мм1.9 м/с5 %
    09:00Ясно и безоблачно+21°C52 %713 мм2.3 м/с5 %
    12:00Ясно и безоблачно+27°C34 %713 мм2.2 м/с5 %
    15:00Ясно и безоблачно+29°C30 %711 мм1.6 м/с5 %
    18:00Ясно и безоблачно+24°C40 %711 мм1.8 м/с5 %
    21:00Ясно и безоблачно+23°C55 %712 мм2.3 м/с5 %
  • 21июня
    Пятница
    +17°
    +29°
    Небольшая облачность
    ВремяПогодаТемператураВлажностьДавлениеВетер, м/сВероятность осадков
    00:00Ясно и безоблачно+19°C76 %712 мм1.9 м/с5 %
    03:00Ясно и безоблачно+17°C84 %711 мм1.7 м/с5 %
    06:00Ясно и безоблачно+16°C90 %711 мм2.0 м/с5 %
    09:00Ясно и безоблачно+21°C66 %713 мм3.2 м/с5 %
    12:00Ясно и безоблачно+27°C42 %713 мм3.1 м/с5 %
    15:00Небольшая облачность+28°C32 %711 мм2.8 м/с5 %
    18:00Небольшая облачность+24°C40 %711 мм4.9 м/с5 %
    21:00Практически безоблачно+22°C60 %712 мм1.9 м/с5 %
  • 22июня
    Суббота
    +14°
    +28°
    Облачно с прояснениями
    ВремяПогодаТемператураВлажностьДавлениеВетер, м/сВероятность осадков
    00:00Ясно и безоблачно+18°C73 %712 мм1.7 м/с3 %
    03:00Ясно и безоблачно+19°C71 %711 мм2.2 м/с5 %
    06:00Практически безоблачно+17°C74 %711 мм2.3 м/с5 %
    09:00Ясно и безоблачно+21°C52 %713 мм2.9 м/с5 %
    12:00Облачно с прояснениями+27°C32 %713 мм2.6 м/с5 %
    15:00Облачно с прояснениями+28°C29 %711 мм2.2 м/с3 %
    18:00Ясно и безоблачно+25°C33 %710 мм1.8 м/с4 %
    21:00Ясно и безоблачно+22°C48 %711 мм1.8 м/с4 %
  • 23июня
    Воскресенье
    +14°
    +30°
    Ясно и безоблачно
    ВремяПогодаТемператураВлажностьДавлениеВетер, м/сВероятность осадков
    00:00Ясно и безоблачно+19°C63 %711 мм2.2 м/с5 %
    03:00Ясно и безоблачно+16°C75 %710 мм1.9 м/с5 %
    06:00Ясно и безоблачно+15°C83 %710 мм1.8 м/с5 %
    09:00Ясно и безоблачно+21°C57 %713 мм1.6 м/с5 %
    12:00Ясно и безоблачно+27°C35 %712 мм1.9 м/с5 %
    15:00Ясно и безоблачно+29°C30 %710 мм2.1 м/с5 %
    18:00Ясно и безоблачно+25°C41 %710 мм2.0 м/с5 %
    21:00Ясно и безоблачно+23°C47 %711 мм1.5 м/с5 %
Мы используем cookies
Соглашаюсь